Time;durP1;ratioP1;P1;durP2;ratioP2;P2;SDS_P1;SDS_P2;PMS_P1;PMS_P2;Temp;Humidity;BMP_temperature;BMP_pressure;BME280_temperature;BME280_humidity;BME280_pressure;Samples;Min_cycle;Max_cycle;Signal;HPM_P1;HPM_P2
2023/09/05 00:00:52;;;;;;;4.05;1.88;;;;;;;21.32;67.61;100969.84;8234043;28;20100;-86
2023/09/05 00:04:56;;;;;;;2.25;1.30;;;;;;;21.68;67.06;100989.78;8235913;28;20116;-86
2023/09/05 00:08:57;;;;;;;2.30;1.30;;;;;;;21.80;66.03;100995.66;8231901;28;20049;-86
2023/09/05 00:12:57;;;;;;;2.67;1.17;;;;;;;21.70;66.13;100971.19;8246504;28;20041;-85
2023/09/05 00:16:57;;;;;;;3.30;1.13;;;;;;;21.77;65.62;100961.09;8236804;28;20038;-86
2023/09/05 00:20:58;;;;;;;1.85;1.35;;;;;;;22.12;64.57;100987.59;8219674;28;20038;-87
2023/09/05 00:24:58;;;;;;;3.33;1.58;;;;;;;22.23;64.09;100981.47;8221170;28;20053;-87
2023/09/05 00:28:59;;;;;;;2.53;1.33;;;;;;;21.98;64.53;100938.97;8250870;28;20038;-86
2023/09/05 00:33:01;;;;;;;4.15;1.33;;;;;;;22.15;63.98;100962.38;8249004;28;20058;-85
2023/09/05 00:37:04;;;;;;;2.97;1.27;;;;;;;22.14;64.21;100966.19;8240009;28;20080;-86
2023/09/05 00:41:05;;;;;;;3.78;1.38;;;;;;;22.11;64.44;100944.53;8233733;28;20026;-87
2023/09/05 00:45:06;;;;;;;2.72;1.50;;;;;;;22.05;64.64;100941.78;8218063;28;20034;-87
2023/09/05 00:49:10;;;;;;;3.88;1.48;;;;;;;21.89;65.00;100942.97;8233164;28;20050;-86
2023/09/05 00:53:11;;;;;;;3.47;1.10;;;;;;;22.09;64.85;100957.69;8234938;28;20064;-86
2023/09/05 00:57:14;;;;;;;3.50;1.45;;;;;;;21.77;65.51;100936.31;8220576;28;20034;-86
2023/09/05 01:01:15;;;;;;;3.25;1.20;;;;;;;21.71;65.86;100936.25;8249487;28;20092;-86
2023/09/05 01:05:16;;;;;;;3.97;1.50;;;;;;;21.75;66.42;100957.72;8234156;28;20073;-86
2023/09/05 01:13:39;;;;;;;5.75;1.90;;;;;;;21.58;67.38;100959.03;8372472;27;20478;-87
2023/09/05 01:17:40;;;;;;;2.85;1.70;;;;;;;21.46;67.15;100930.38;8353857;27;20056;-85
2023/09/05 01:21:51;;;;;;;5.10;1.40;;;;;;;21.40;67.09;100911.91;8374266;27;20044;-86
2023/09/05 01:25:52;;;;;;;2.70;1.60;;;;;;;21.61;67.31;100946.75;8374065;27;20037;-85
2023/09/05 01:29:54;;;;;;;4.30;1.52;;;;;;;21.54;67.42;100937.63;8423207;27;20036;-86
2023/09/05 01:33:55;;;;;;;4.03;1.85;;;;;;;21.54;67.50;100941.22;8417246;27;20048;-85
2023/09/05 01:37:55;;;;;;;3.03;1.73;;;;;;;21.42;67.76;100929.06;8394228;27;20044;-88
2023/09/05 01:41:58;;;;;;;2.70;1.70;;;;;;;21.45;67.62;100923.19;8418697;27;20029;-87
2023/09/05 01:45:59;;;;;;;4.28;1.65;;;;;;;21.30;67.73;100912.28;8377400;27;20054;-86
2023/09/05 01:50:02;;;;;;;2.58;1.77;;;;;;;21.44;67.91;100929.75;8388921;27;20044;-86
2023/09/05 01:54:03;;;;;;;5.82;2.00;;;;;;;21.41;68.10;100918.28;8420103;27;20395;-86
2023/09/05 01:58:04;;;;;;;3.10;1.50;;;;;;;21.44;68.32;100932.50;8405265;27;20024;-86
2023/09/05 02:02:04;;;;;;;3.70;1.65;;;;;;;21.40;68.23;100944.09;8376906;27;20036;-88
2023/09/05 02:06:05;;;;;;;3.22;1.88;;;;;;;21.14;68.76;100896.06;8399654;27;20097;-86
2023/09/05 02:10:06;;;;;;;3.33;1.40;;;;;;;21.41;68.16;100924.63;8362625;27;20060;-86
2023/09/05 02:14:07;;;;;;;3.22;1.30;;;;;;;21.30;68.48;100919.66;8416593;27;20070;-87
2023/09/05 02:18:10;;;;;;;4.00;1.88;;;;;;;21.34;68.74;100923.72;8365428;27;20036;-86
2023/09/05 02:22:11;;;;;;;3.70;1.70;;;;;;;21.37;68.32;100931.56;8408819;27;20041;-86
2023/09/05 02:26:12;;;;;;;4.55;1.50;;;;;;;21.13;68.95;100910.88;8378522;28;20029;-86
2023/09/05 02:30:16;;;;;;;4.53;1.92;;;;;;;21.40;68.63;100939.41;8379004;28;20048;-86
2023/09/05 02:34:16;;;;;;;1.90;1.40;;;;;;;21.13;69.18;100921.88;8370620;28;20044;-86
2023/09/05 02:38:17;;;;;;;3.25;1.55;;;;;;;21.15;69.50;100924.41;8374063;28;20040;-86
2023/09/05 02:42:18;;;;;;;2.70;1.58;;;;;;;21.08;69.21;100901.53;8376997;28;20067;-87
2023/09/05 02:46:18;;;;;;;2.90;1.60;;;;;;;21.37;68.64;100923.31;8357663;28;20036;-87
2023/09/05 02:50:19;;;;;;;1.63;1.15;;;;;;;21.45;67.83;100925.94;8358418;28;20029;-86
2023/09/05 02:54:19;;;;;;;3.80;1.42;;;;;;;21.51;67.36;100919.63;8357554;28;20399;-86
2023/09/05 02:58:20;;;;;;;2.70;1.60;;;;;;;21.54;67.47;100919.22;8356184;28;20068;-86
2023/09/05 03:02:23;;;;;;;2.83;1.70;;;;;;;21.56;67.39;100936.34;8360524;28;20033;-85
2023/09/05 03:06:27;;;;;;;2.00;1.20;;;;;;;21.31;68.62;100921.38;8351421;28;20115;-86
2023/09/05 03:10:30;;;;;;;4.95;1.67;;;;;;;21.05;68.88;100908.25;8357294;28;20079;-85
2023/09/05 03:14:30;;;;;;;2.85;1.42;;;;;;;20.97;68.61;100885.56;8339241;28;20127;-86
2023/09/05 03:18:31;;;;;;;2.70;1.48;;;;;;;21.10;68.85;100919.50;8393464;28;20094;-86
2023/09/05 03:22:32;;;;;;;2.25;1.40;;;;;;;21.21;68.67;100920.88;8357900;28;20397;-86
2023/09/05 03:26:32;;;;;;;2.42;1.65;;;;;;;21.03;69.27;100904.88;8358474;28;20380;-86
2023/09/05 03:30:33;;;;;;;5.03;1.90;;;;;;;20.98;69.72;100917.50;8354907;28;20437;-86
2023/09/05 03:34:34;;;;;;;2.08;1.40;;;;;;;20.99;69.74;100927.44;8392686;28;20058;-87
2023/09/05 03:38:35;;;;;;;2.60;1.30;;;;;;;20.91;70.07;100917.41;8384105;28;20032;-86
2023/09/05 03:42:36;;;;;;;5.00;1.60;;;;;;;20.87;70.17;100907.88;8384499;28;20035;-86
2023/09/05 03:46:36;;;;;;;2.63;1.60;;;;;;;20.52;70.37;100870.31;8375288;28;20048;-86
2023/09/05 03:50:37;;;;;;;2.78;1.60;;;;;;;20.59;70.89;100897.84;8374261;28;20078;-86
2023/09/05 03:54:38;;;;;;;2.67;1.42;;;;;;;20.71;71.04;100910.03;8343616;28;20402;-86
2023/09/05 03:58:39;;;;;;;3.17;1.50;;;;;;;20.58;71.49;100912.63;8355264;28;20063;-86
2023/09/05 04:02:39;;;;;;;4.40;1.50;;;;;;;20.69;70.83;100912.13;8362346;28;20032;-86
2023/09/05 04:06:40;;;;;;;2.47;1.90;;;;;;;20.51;71.17;100890.59;8366662;28;20619;-85
2023/09/05 04:10:42;;;;;;;3.53;1.58;;;;;;;20.67;71.32;100914.19;8329847;28;20076;-86
2023/09/05 04:14:42;;;;;;;3.33;1.50;;;;;;;20.60;71.41;100907.78;8363126;28;20085;-85
2023/09/05 04:18:43;;;;;;;2.85;1.75;;;;;;;20.66;71.54;100923.50;8366815;28;20117;-85
2023/09/05 04:22:43;;;;;;;3.85;1.80;;;;;;;20.67;71.23;100923.31;8374139;28;20044;-85
2023/09/05 04:26:45;;;;;;;2.38;1.25;;;;;;;20.52;71.22;100902.44;8371469;28;20060;-86
2023/09/05 04:30:45;;;;;;;4.65;1.80;;;;;;;20.63;71.51;100915.66;8356390;28;20037;-85
2023/09/05 04:34:46;;;;;;;3.38;1.70;;;;;;;20.50;72.30;100923.75;8337538;28;20033;-85
2023/09/05 04:38:49;;;;;;;3.03;1.40;;;;;;;20.41;72.23;100905.69;8371996;28;20033;-86
2023/09/05 04:42:50;;;;;;;2.35;1.75;;;;;;;20.47;72.28;100921.41;8355796;28;20033;-85
2023/09/05 04:46:50;;;;;;;3.08;2.00;;;;;;;20.52;72.18;100928.00;8370360;28;20040;-84
2023/09/05 04:50:51;;;;;;;3.45;2.10;;;;;;;20.53;71.91;100915.13;8339548;28;20174;-85
2023/09/05 04:54:56;;;;;;;2.75;1.80;;;;;;;20.53;71.41;100912.38;8376136;28;20400;-85
2023/09/05 04:58:56;;;;;;;2.95;1.73;;;;;;;20.73;71.43;100936.25;8341874;28;20036;-86
2023/09/05 05:02:58;;;;;;;3.67;1.60;;;;;;;20.79;71.13;100923.63;8349148;28;20036;-85
2023/09/05 05:06:58;;;;;;;2.42;1.67;;;;;;;20.77;71.12;100936.72;8335964;28;20043;-87
2023/09/05 05:11:03;;;;;;;3.78;2.00;;;;;;;20.85;71.46;100939.31;8353328;28;20036;-86
2023/09/05 05:15:04;;;;;;;4.50;1.52;;;;;;;20.79;71.15;100937.38;8371460;28;20033;-86
2023/09/05 05:19:05;;;;;;;4.60;2.00;;;;;;;20.75;72.16;100942.41;8370894;28;20457;-86
2023/09/05 05:23:06;;;;;;;2.95;1.90;;;;;;;20.84;71.26;100938.50;8371056;28;20029;-86
2023/09/05 05:27:07;;;;;;;3.28;2.05;;;;;;;20.88;71.10;100927.94;8372602;28;20037;-87
2023/09/05 05:31:14;;;;;;;4.57;1.65;;;;;;;21.11;70.83;100950.63;8370961;28;20045;-87
2023/09/05 05:35:15;;;;;;;4.13;1.70;;;;;;;21.22;70.74;100963.81;8354864;28;20048;-87
2023/09/05 05:39:16;;;;;;;2.88;2.05;;;;;;;21.28;69.88;100946.53;8368054;28;20040;-85
2023/09/05 05:43:16;;;;;;;8.45;1.73;;;;;;;21.45;69.29;100953.44;8338941;28;20489;-86
2023/09/05 05:47:16;;;;;;;2.83;1.65;;;;;;;21.54;69.18;100962.38;8383946;28;20044;-84
2023/09/05 05:51:17;;;;;;;5.88;1.90;;;;;;;21.81;68.07;100976.19;8356175;28;20513;-84
2023/09/05 05:55:18;;;;;;;3.40;1.33;;;;;;;21.86;68.43;100978.31;8378735;28;20037;-84
2023/09/05 05:59:19;;;;;;;5.68;2.30;;;;;;;22.01;68.15;100973.50;8370521;28;20041;-84
2023/09/05 06:03:20;;;;;;;3.63;1.80;;;;;;;22.07;67.86;100976.31;8366996;28;20033;-84
2023/09/05 06:07:21;;;;;;;3.45;1.65;;;;;;;22.22;67.36;100977.03;8363539;28;20047;-84
2023/09/05 06:11:21;;;;;;;3.20;1.60;;;;;;;22.32;67.00;100985.75;8376891;28;20041;-84
2023/09/05 06:15:22;;;;;;;5.20;1.60;;;;;;;22.42;66.75;100991.72;8380372;28;20048;-84
2023/09/05 06:19:22;;;;;;;3.20;1.50;;;;;;;22.48;66.53;100996.41;8388991;28;20087;-84
2023/09/05 06:23:23;;;;;;;6.70;1.60;;;;;;;22.45;66.89;100974.78;8379979;28;20041;-84
2023/09/05 06:27:24;;;;;;;3.05;1.85;;;;;;;22.64;66.79;100976.81;8375168;28;20116;-84
2023/09/05 06:31:24;;;;;;;4.03;1.95;;;;;;;22.72;66.03;100971.09;8347408;28;20123;-85
2023/09/05 06:35:26;;;;;;;2.30;1.70;;;;;;;23.13;65.87;100984.75;8345892;28;20147;-85
2023/09/05 06:39:26;;;;;;;4.75;1.73;;;;;;;23.13;65.56;100984.75;8372177;28;20036;-85
2023/09/05 06:43:27;;;;;;;3.75;2.10;;;;;;;23.09;64.49;100972.47;8380618;28;20120;-85
2023/09/05 06:47:27;;;;;;;2.67;1.42;;;;;;;23.38;64.87;100982.25;8389661;28;20056;-85
2023/09/05 06:51:30;;;;;;;6.57;1.77;;;;;;;23.38;64.99;100987.75;8397823;28;20548;-84
2023/09/05 06:55:34;;;;;;;2.05;1.48;;;;;;;23.34;64.17;100948.72;8371890;28;20045;-85
2023/09/05 06:59:35;;;;;;;2.38;1.38;;;;;;;23.55;63.77;100975.25;8346194;28;20115;-85
2023/09/05 07:03:36;;;;;;;4.57;1.90;;;;;;;23.53;64.46;100983.75;8369478;28;20033;-86
2023/09/05 07:07:37;;;;;;;3.60;1.50;;;;;;;23.60;64.99;100975.47;8401109;28;20028;-85
2023/09/05 07:11:37;;;;;;;4.85;1.35;;;;;;;23.87;63.60;100989.00;8347442;28;20095;-86
2023/09/05 07:15:38;;;;;;;2.90;1.55;;;;;;;23.71;63.59;100956.31;8378712;28;20391;-86
2023/09/05 07:19:38;;;;;;;2.25;1.30;;;;;;;23.89;63.94;100974.97;8377116;28;20037;-86
2023/09/05 07:23:39;;;;;;;4.38;1.77;;;;;;;23.79;63.54;100980.97;8356977;28;20775;-87
2023/09/05 07:27:40;;;;;;;5.78;1.80;;;;;;;23.94;64.63;100972.44;8374887;28;20044;-86
2023/09/05 07:31:42;;;;;;;3.38;1.80;;;;;;;24.12;64.01;100975.41;8382364;28;20426;-86
2023/09/05 07:35:44;;;;;;;4.13;1.90;;;;;;;24.19;64.16;100992.78;8344765;28;20098;-87
2023/09/05 07:39:50;;;;;;;3.03;1.65;;;;;;;24.38;63.76;100986.34;8344749;28;21514;-86
2023/09/05 07:43:51;;;;;;;3.88;1.50;;;;;;;24.55;62.76;100998.63;8367237;28;20058;-86
2023/09/05 07:47:52;;;;;;;2.20;1.55;;;;;;;24.55;63.37;100993.09;8401439;28;20037;-86
2023/09/05 07:51:54;;;;;;;2.85;1.90;;;;;;;24.64;63.70;100991.75;8369809;28;20162;-86
2023/09/05 07:55:54;;;;;;;6.15;1.88;;;;;;;24.95;64.28;101000.97;8393726;28;20063;-86
2023/09/05 07:59:55;;;;;;;2.42;1.40;;;;;;;24.80;63.27;100996.81;8374475;28;20040;-86
2023/09/05 08:03:55;;;;;;;8.45;2.38;;;;;;;24.79;63.17;100978.50;8362509;28;20046;-86
2023/09/05 08:07:56;;;;;;;2.28;1.80;;;;;;;24.93;61.96;100988.44;8389783;28;20048;-85
2023/09/05 08:11:56;;;;;;;4.13;1.95;;;;;;;25.15;62.54;101000.84;8376683;28;20048;-86
2023/09/05 08:15:57;;;;;;;2.72;1.58;;;;;;;25.22;62.42;100996.09;8367227;28;20045;-86
2023/09/05 08:19:58;;;;;;;4.20;1.70;;;;;;;25.41;61.37;100989.59;8354506;28;20044;-87
2023/09/05 08:23:59;;;;;;;2.53;1.55;;;;;;;25.62;62.09;100974.50;8407370;28;20498;-87
2023/09/05 08:28:00;;;;;;;4.85;1.70;;;;;;;25.61;61.13;100989.44;8382290;28;20036;-86
2023/09/05 08:32:00;;;;;;;2.83;1.52;;;;;;;25.77;59.97;100981.38;8375274;28;20060;-86
2023/09/05 08:36:04;;;;;;;4.60;1.42;;;;;;;25.90;59.71;100978.50;8343741;28;20040;-85
2023/09/05 08:40:05;;;;;;;4.43;2.10;;;;;;;25.86;60.59;100955.06;8384259;28;20537;-87
2023/09/05 08:44:06;;;;;;;2.38;1.35;;;;;;;26.16;59.22;100977.38;8366163;28;20409;-86
2023/09/05 08:48:07;;;;;;;4.32;1.67;;;;;;;26.17;59.21;100982.69;8330154;28;20124;-85
2023/09/05 08:52:10;;;;;;;4.38;1.73;;;;;;;26.30;59.52;100962.28;8375968;28;20052;-87
2023/09/05 08:56:11;;;;;;;2.57;1.63;;;;;;;26.46;58.97;100979.13;8370066;28;20037;-86
2023/09/05 09:00:17;;;;;;;3.88;1.70;;;;;;;26.42;59.11;100944.63;8411025;28;20801;-88
2023/09/05 09:04:20;;;;;;;3.35;1.30;;;;;;;26.55;59.44;100966.66;8362994;28;20036;-87
2023/09/05 09:08:21;;;;;;;2.13;1.33;;;;;;;26.70;58.41;100975.44;8339008;28;20047;-87
2023/09/05 09:12:36;;;;;;;2.75;1.70;;;;;;;26.83;58.10;100966.06;8359119;28;20045;-86
2023/09/05 09:16:45;;;;;;;3.75;1.40;;;;;;;27.01;58.64;100979.06;8410822;28;20039;-87
2023/09/05 09:20:49;;;;;;;2.92;1.88;;;;;;;26.78;57.61;100950.13;8365702;28;20033;-86
2023/09/05 09:24:50;;;;;;;2.07;1.57;;;;;;;27.08;58.61;100965.91;8392536;28;20036;-88
2023/09/05 09:28:52;;;;;;;3.28;1.80;;;;;;;27.11;57.25;100954.34;8356937;28;20044;-87
2023/09/05 09:32:53;;;;;;;3.38;1.58;;;;;;;28.61;55.50;100964.38;8378233;28;20123;-87
2023/09/05 09:36:54;;;;;;;3.53;1.45;;;;;;;29.56;52.37;100973.69;8400427;28;20123;-87
2023/09/05 09:40:55;;;;;;;7.35;1.92;;;;;;;30.38;50.66;100947.63;8374598;28;20040;-86
2023/09/05 09:44:56;;;;;;;2.10;1.63;;;;;;;31.29;50.17;100938.34;8365729;28;20116;-86
2023/09/05 09:48:59;;;;;;;2.78;1.55;;;;;;;31.49;48.76;100941.31;8385387;28;20055;-87
2023/09/05 09:53:00;;;;;;;3.80;1.42;;;;;;;31.35;49.04;100908.50;8390681;28;20069;-87
2023/09/05 09:57:05;;;;;;;5.60;1.50;;;;;;;32.38;48.59;100956.19;8396073;28;20044;-87
2023/09/05 10:01:07;;;;;;;2.97;1.52;;;;;;;32.96;47.74;100947.47;8402492;28;20037;-87
2023/09/05 10:05:10;;;;;;;2.38;1.10;;;;;;;32.59;46.83;100952.38;8350239;28;20043;-87
2023/09/05 10:09:11;;;;;;;3.25;1.45;;;;;;;32.96;46.39;100949.44;8409840;28;20072;-86
2023/09/05 10:13:14;;;;;;;7.57;1.50;;;;;;;32.48;47.00;100905.00;8347405;28;20414;-88
2023/09/05 10:17:16;;;;;;;3.10;1.60;;;;;;;33.14;46.90;100918.91;8349625;28;20403;-86
2023/09/05 10:21:25;;;;;;;3.83;1.40;;;;;;;33.56;45.14;100911.06;8411455;28;20513;-88
2023/09/05 10:25:27;;;;;;;3.60;1.52;;;;;;;33.86;45.95;100936.28;8347727;28;20089;-87
2023/09/05 10:29:42;;;;;;;2.03;1.30;;;;;;;34.26;44.36;100928.88;8396465;28;20040;-86
2023/09/05 10:33:44;;;;;;;1.63;1.23;;;;;;;33.99;44.88;100917.22;8331948;28;20043;-87
2023/09/05 10:37:59;;;;;;;3.65;1.25;;;;;;;33.81;45.04;100939.09;8362351;28;20055;-86
2023/09/05 10:42:00;;;;;;;4.47;1.50;;;;;;;33.62;45.45;100915.56;8396446;28;20036;-87
2023/09/05 10:46:02;;;;;;;4.20;1.50;;;;;;;33.97;45.44;100937.97;8347216;28;20032;-88
2023/09/05 10:50:05;;;;;;;4.45;1.58;;;;;;;34.98;44.73;100929.16;8364207;28;20048;-87
2023/09/05 10:54:26;;;;;;;2.47;1.27;;;;;;;34.84;44.17;100942.97;8396107;28;20449;-89
2023/09/05 10:58:51;;;;;;;3.60;1.30;;;;;;;34.55;45.15;100911.09;8358054;28;20067;-87
2023/09/05 11:02:55;;;;;;;3.17;1.60;;;;;;;35.02;44.25;100921.78;8380954;28;20115;-88
2023/09/05 11:06:59;;;;;;;1.92;1.38;;;;;;;34.50;43.69;100896.22;8348173;28;20036;-87
2023/09/05 11:10:59;;;;;;;3.10;1.25;;;;;;;34.48;44.24;100895.69;8367662;28;20072;-88
2023/09/05 11:15:04;;;;;;;4.22;1.25;;;;;;;34.83;43.94;100923.59;8357872;28;20552;-89
2023/09/05 11:19:05;;;;;;;4.28;1.40;;;;;;;35.36;44.58;100905.81;8377998;28;20542;-87
2023/09/05 11:23:27;;;;;;;4.20;1.30;;;;;;;35.22;44.02;100893.53;8367798;28;20395;-87
2023/09/05 11:27:30;;;;;;;3.00;1.13;;;;;;;35.51;43.68;100897.22;8376478;28;20033;-88
2023/09/05 11:31:31;;;;;;;3.20;1.13;;;;;;;35.35;43.33;100888.09;8386651;28;20045;-89
2023/09/05 11:35:35;;;;;;;2.55;1.45;;;;;;;35.63;42.94;100889.22;8362021;28;20068;-87
2023/09/05 11:39:36;;;;;;;2.85;1.10;;;;;;;35.24;43.69;100896.88;8346521;28;20039;-88
2023/09/05 11:43:44;;;;;;;4.85;1.27;;;;;;;34.79;43.18;100874.72;8386528;27;20049;-89
2023/09/05 11:47:46;;;;;;;2.03;1.20;;;;;;;34.85;43.39;100881.97;8362257;28;20071;-86
2023/09/05 11:51:46;;;;;;;4.07;1.00;;;;;;;35.10;43.20;100862.13;8363686;28;20398;-87
2023/09/05 11:55:47;;;;;;;2.13;1.08;;;;;;;35.84;42.54;100876.66;8349350;28;20124;-90
2023/09/05 11:59:49;;;;;;;4.88;1.25;;;;;;;35.48;42.14;100847.16;8425282;28;20041;-89
2023/09/05 12:03:52;;;;;;;3.83;0.95;;;;;;;35.11;43.13;100872.25;8364791;28;20037;-87
2023/09/05 12:07:54;;;;;;;4.00;1.57;;;;;;;34.85;43.15;100806.09;8393923;28;20041;-89
2023/09/05 12:12:18;;;;;;;4.47;1.25;;;;;;;35.80;43.24;100858.66;8360600;28;20476;-85
2023/09/05 12:16:19;;;;;;;1.60;1.08;;;;;;;34.77;44.10;100846.06;8383961;28;20039;-88
2023/09/05 12:20:20;;;;;;;3.97;1.58;;;;;;;33.63;45.53;100821.00;8393331;28;20040;-88
2023/09/05 12:24:26;;;;;;;2.80;1.10;;;;;;;32.33;47.17;100807.78;8369253;28;20040;-93
2023/09/05 12:28:35;;;;;;;2.28;1.17;;;;;;;31.95;47.83;100820.25;8389515;28;20035;-95
2023/09/05 12:32:35;;;;;;;2.70;1.30;;;;;;;31.71;49.06;100826.53;8385344;28;20045;-95
2023/09/05 12:36:36;;;;;;;3.17;1.10;;;;;;;31.42;48.90;100797.28;8399973;28;20576;-93
2023/09/05 12:40:37;;;;;;;2.35;1.33;;;;;;;31.52;50.17;100833.69;8379978;28;20090;-92
2023/09/05 12:44:38;;;;;;;1.75;1.00;;;;;;;31.38;50.22;100810.13;8378555;28;20170;-94
2023/09/05 12:48:38;;;;;;;3.88;1.40;;;;;;;31.28;49.31;100804.44;8365442;28;20037;-95
2023/09/05 12:52:43;;;;;;;2.63;1.20;;;;;;;31.55;49.83;100839.59;8375682;28;20489;-92
2023/09/05 12:56:44;;;;;;;3.40;1.13;;;;;;;31.46;48.65;100834.75;8371930;28;20086;-91
2023/09/05 13:00:45;;;;;;;1.40;0.95;;;;;;;31.11;49.93;100806.53;8353223;28;20498;-92
2023/09/05 13:04:46;;;;;;;1.98;0.70;;;;;;;31.30;49.24;100802.22;8357156;28;20040;-92
2023/09/05 13:08:47;;;;;;;4.50;0.98;;;;;;;31.11;48.69;100795.38;8356731;28;20520;-93
2023/09/05 13:12:49;;;;;;;3.10;1.25;;;;;;;31.33;49.30;100801.69;8340074;28;20044;-89
2023/09/05 13:16:50;;;;;;;1.65;1.02;;;;;;;31.29;49.63;100798.59;8353804;28;20048;-90
2023/09/05 13:20:51;;;;;;;4.28;0.90;;;;;;;31.04;48.36;100769.63;8342087;28;20047;-91
2023/09/05 13:24:52;;;;;;;2.10;1.35;;;;;;;31.35;48.38;100813.47;8328984;28;20052;-91
2023/09/05 13:28:52;;;;;;;2.58;0.98;;;;;;;31.25;48.71;100794.63;8352241;28;20047;-92
2023/09/05 13:32:55;;;;;;;1.27;0.90;;;;;;;31.10;48.70;100768.53;8358637;28;20083;-87
2023/09/05 13:36:55;;;;;;;1.00;0.70;;;;;;;31.31;48.03;100784.34;8377118;28;20047;-90
2023/09/05 13:40:56;;;;;;;1.45;1.00;;;;;;;31.38;48.21;100766.22;8360219;28;20506;-92
2023/09/05 13:44:57;;;;;;;2.63;0.90;;;;;;;31.28;48.53;100770.91;8336707;28;20048;-91
2023/09/05 13:48:57;;;;;;;3.30;1.00;;;;;;;31.29;49.09;100776.22;8354521;28;20124;-90
2023/09/05 13:53:01;;;;;;;2.80;1.00;;;;;;;31.01;48.06;100719.88;8367310;28;20037;-91
2023/09/05 13:57:02;;;;;;;3.60;0.88;;;;;;;31.11;47.94;100745.06;8353023;28;20049;-88
2023/09/05 14:01:06;;;;;;;3.70;0.80;;;;;;;31.21;48.48;100753.50;8378762;28;20056;-90
2023/09/05 14:05:07;;;;;;;1.38;0.90;;;;;;;31.62;48.25;100772.25;8348762;28;20569;-91
2023/09/05 14:09:08;;;;;;;1.40;0.80;;;;;;;31.46;47.04;100734.09;8351764;28;20152;-89
2023/09/05 14:13:09;;;;;;;2.30;0.90;;;;;;;31.51;47.21;100768.56;8347499;28;20048;-90
2023/09/05 14:17:10;;;;;;;3.72;0.77;;;;;;;31.41;46.42;100762.06;8368894;28;20110;-90
2023/09/05 14:21:11;;;;;;;2.10;0.88;;;;;;;31.33;47.37;100759.75;8371861;28;20041;-90
2023/09/05 14:25:11;;;;;;;1.77;0.80;;;;;;;31.75;47.06;100760.53;8355071;28;20051;-92
2023/09/05 14:29:12;;;;;;;2.00;0.68;;;;;;;31.31;45.95;100706.06;8380033;28;20040;-90
2023/09/05 14:33:12;;;;;;;4.25;0.90;;;;;;;31.47;46.06;100747.00;8359455;28;20052;-93
2023/09/05 14:37:13;;;;;;;2.88;0.60;;;;;;;31.42;46.05;100717.06;8374077;28;20063;-89
2023/09/05 14:41:14;;;;;;;5.60;0.80;;;;;;;31.54;46.70;100736.41;8386128;28;20285;-91
2023/09/05 14:45:14;;;;;;;4.30;0.90;;;;;;;31.48;46.26;100727.16;8377767;28;20094;-92
2023/09/05 14:49:15;;;;;;;2.30;0.70;;;;;;;31.59;45.17;100761.59;8365503;28;20048;-89
2023/09/05 14:53:15;;;;;;;4.35;0.85;;;;;;;31.46;45.05;100734.97;8355635;28;20419;-90
2023/09/05 14:57:18;;;;;;;2.15;0.80;;;;;;;31.40;45.37;100713.69;8337580;28;20028;-92
2023/09/05 15:01:19;;;;;;;3.65;0.93;;;;;;;31.45;45.64;100738.03;8355966;28;20129;-91
2023/09/05 15:05:20;;;;;;;1.30;0.73;;;;;;;31.20;45.91;100723.88;8353184;28;20037;-92
2023/09/05 15:09:21;;;;;;;1.88;0.90;;;;;;;31.14;46.11;100708.19;8370186;28;20551;-88
2023/09/05 15:13:25;;;;;;;3.83;1.73;;;;;;;31.07;45.92;100696.44;8366723;28;20047;-92
2023/09/05 15:17:26;;;;;;;;;;;;;;;31.36;45.96;100728.47;8340581;28;20049;-91
2023/09/05 15:21:29;;;;;;;3.20;0.90;;;;;;;31.00;47.35;100679.91;8374184;28;19973;-88
2023/09/05 15:25:30;;;;;;;1.80;0.85;;;;;;;31.34;46.11;100736.28;8387160;28;20122;-89
2023/09/05 15:29:31;;;;;;;1.52;0.68;;;;;;;31.43;46.50;100729.06;8412194;28;20056;-93
2023/09/05 15:33:33;;;;;;;1.48;0.82;;;;;;;30.94;46.10;100682.91;8380031;27;20069;-90
2023/09/05 15:37:42;;;;;;;5.00;0.80;;;;;;;30.87;46.11;100696.28;8417540;28;20066;-90
2023/09/05 15:41:48;;;;;;;1.35;0.93;;;;;;;30.92;45.47;100679.59;8400576;28;20043;-90
2023/09/05 15:45:50;;;;;;;2.08;1.00;;;;;;;30.96;46.28;100694.69;8388925;28;20060;-88
2023/09/05 15:49:51;;;;;;;3.55;0.93;;;;;;;30.92;45.70;100727.06;8413074;28;20568;-89
2023/09/05 15:53:53;;;;;;;1.25;0.80;;;;;;;30.76;46.54;100709.34;8357491;28;20071;-91
2023/09/05 15:57:56;;;;;;;3.00;1.13;;;;;;;30.66;47.51;100674.88;8396334;28;20049;-92
2023/09/05 16:01:57;;;;;;;1.02;0.70;;;;;;;30.72;45.96;100702.59;8349554;28;20040;-91
2023/09/05 16:06:01;;;;;;;2.80;0.90;;;;;;;30.52;46.93;100676.47;8361609;28;20051;-91
2023/09/05 16:10:04;;;;;;;3.40;1.10;;;;;;;30.81;46.78;100725.28;8369748;28;20510;-94
2023/09/05 16:14:05;;;;;;;2.22;0.85;;;;;;;30.85;47.27;100737.59;8396756;28;20457;-93
2023/09/05 16:18:06;;;;;;;2.13;0.90;;;;;;;30.75;47.19;100729.16;8368934;28;20041;-93
2023/09/05 16:22:06;;;;;;;1.45;0.90;;;;;;;30.68;46.07;100721.00;8384946;28;20502;-90
2023/09/05 16:26:07;;;;;;;6.47;0.95;;;;;;;30.55;46.33;100698.28;8361074;28;20037;-90
2023/09/05 16:30:08;;;;;;;1.92;0.82;;;;;;;30.54;48.13;100721.69;8378482;28;20045;-93
2023/09/05 16:34:09;;;;;;;1.63;1.10;;;;;;;30.41;47.26;100714.63;8402632;28;20059;-92
2023/09/05 16:38:09;;;;;;;3.95;0.98;;;;;;;30.33;47.17;100718.72;8362878;28;20114;-93
2023/09/05 16:42:11;;;;;;;2.20;1.00;;;;;;;30.49;47.80;100744.00;8364715;28;20063;-91
2023/09/05 16:46:14;;;;;;;2.65;0.80;;;;;;;30.27;47.87;100742.13;8347301;28;20072;-92
2023/09/05 16:50:15;;;;;;;2.95;1.30;;;;;;;30.26;47.91;100743.22;8361185;28;22797;-95
2023/09/05 16:54:15;;;;;;;1.60;0.82;;;;;;;30.23;47.69;100740.13;8360183;28;20045;-93
2023/09/05 16:58:16;;;;;;;3.83;1.40;;;;;;;30.17;48.53;100755.94;8358989;28;20041;-91
2023/09/05 17:02:16;;;;;;;4.25;1.20;;;;;;;29.85;49.66;100732.69;8374259;28;20040;-92
2023/09/05 17:06:17;;;;;;;1.83;0.82;;;;;;;29.47;51.52;100706.81;8364556;28;20052;-95
2023/09/05 17:10:18;;;;;;;1.95;1.23;;;;;;;29.39;53.05;100721.22;8368161;28;20029;-95
2023/09/05 17:14:19;;;;;;;4.82;1.20;;;;;;;29.27;53.48;100712.97;8388502;28;20089;-95
2023/09/05 17:18:21;;;;;;;3.47;1.30;;;;;;;29.06;54.92;100719.34;8389334;28;20058;-87
2023/09/05 17:22:22;;;;;;;2.45;0.98;;;;;;;28.94;54.67;100701.03;8385520;28;20100;-94
2023/09/05 17:26:28;;;;;;;1.20;1.00;;;;;;;29.05;55.78;100765.00;8358151;28;20028;-90
2023/09/05 17:30:29;;;;;;;1.48;1.13;;;;;;;28.77;56.28;100740.03;8395583;28;20037;-94
2023/09/05 17:34:29;;;;;;;1.58;0.95;;;;;;;28.61;56.83;100752.03;8392398;28;20037;-95
2023/09/05 17:38:38;;;;;;;5.00;1.10;;;;;;;28.40;57.19;100733.25;8383819;28;20040;-93
2023/09/05 17:42:38;;;;;;;6.00;1.30;;;;;;;28.23;57.63;100729.59;8419435;28;20036;-91
2023/09/05 17:46:39;;;;;;;2.17;1.23;;;;;;;28.39;58.13;100787.22;8353129;28;20084;-92
2023/09/05 17:50:39;;;;;;;1.90;1.30;;;;;;;28.20;58.35;100777.38;8326428;28;20041;-90
2023/09/05 17:54:40;;;;;;;2.83;1.13;;;;;;;28.19;58.44;100787.69;8378092;28;20028;-90
2023/09/05 17:58:41;;;;;;;4.22;1.00;;;;;;;27.84;58.79;100755.53;8386266;28;20123;-90
2023/09/05 18:02:42;;;;;;;1.50;1.20;;;;;;;27.71;60.06;100787.22;8394600;28;20036;-90
2023/09/05 18:06:46;;;;;;;2.03;1.30;;;;;;;27.42;60.08;100767.94;8384549;28;20151;-92
2023/09/05 18:10:47;;;;;;;1.58;1.08;;;;;;;27.30;61.01;100775.44;8387514;28;20049;-91
2023/09/05 18:14:47;;;;;;;3.15;1.35;;;;;;;27.35;60.95;100795.03;8403671;28;20097;-90
2023/09/05 18:18:48;;;;;;;1.90;1.13;;;;;;;27.01;61.35;100770.88;8375836;28;20131;-89
2023/09/05 18:22:51;;;;;;;4.13;1.17;;;;;;;26.76;62.37;100763.59;8409312;28;20060;-91
2023/09/05 18:26:51;;;;;;;1.73;1.40;;;;;;;26.53;62.99;100760.75;8362793;28;20052;-89
2023/09/05 18:30:52;;;;;;;2.53;1.38;;;;;;;26.72;63.39;100804.00;8373596;28;20119;-89
2023/09/05 18:34:52;;;;;;;3.20;1.50;;;;;;;26.66;63.51;100802.16;8364137;28;20075;-91
2023/09/05 18:38:53;;;;;;;2.90;1.30;;;;;;;26.45;63.91;100780.53;8363457;28;20044;-90
2023/09/05 18:42:53;;;;;;;8.50;1.75;;;;;;;26.44;64.99;100801.00;8375318;28;20082;-92
2023/09/05 18:46:54;;;;;;;2.60;1.52;;;;;;;26.40;65.28;100819.22;8364832;28;20064;-90